Time;durP1;ratioP1;P1;durP2;ratioP2;P2;SDS_P1;SDS_P2;PMS_P1;PMS_P2;Temp;Humidity;BMP_temperature;BMP_pressure;BME280_temperature;BME280_humidity;BME280_pressure;Samples;Min_cycle;Max_cycle;Signal;HPM_P1;HPM_P2
2022/03/04 00:04:09;;;;;;;32.07;13.73;;;1.80;64.80;;;-0.18;57.22;99999.72;10459486;27;96471;-77
2022/03/04 00:09:12;;;;;;;31.27;13.77;;;1.80;64.40;;;-0.26;57.93;99992.44;10438297;27;96495;-76
2022/03/04 00:14:15;;;;;;;36.30;15.80;;;1.70;66.10;;;-0.34;58.62;99999.97;10427917;27;97814;-76
2022/03/04 00:19:18;;;;;;;30.93;13.30;;;1.60;67.00;;;-0.42;59.10;99992.66;10452986;27;96608;-76
2022/03/04 00:24:23;;;;;;;32.47;14.10;;;1.50;66.50;;;-0.44;59.24;99991.88;10439881;27;96794;-77
2022/03/04 00:29:26;;;;;;;36.23;14.63;;;1.50;67.20;;;-0.44;59.36;99999.72;10432878;27;96506;-77
2022/03/04 00:34:28;;;;;;;26.37;12.80;;;1.50;67.40;;;-0.41;59.68;99988.25;10427908;27;96953;-77
2022/03/04 00:39:31;;;;;;;29.53;12.70;;;1.50;68.60;;;-0.34;59.71;99997.34;10382228;28;96537;-77
2022/03/04 00:44:34;;;;;;;31.23;13.03;;;1.50;67.40;;;-0.24;60.06;99994.94;10425126;27;97165;-77
2022/03/04 00:49:37;;;;;;;25.40;11.43;;;1.60;69.00;;;-0.14;60.34;99983.75;10439769;27;96772;-77
2022/03/04 00:54:41;;;;;;;22.97;10.07;;;1.70;69.00;;;-0.03;60.20;99989.09;10416434;27;96597;-77
2022/03/04 00:59:44;;;;;;;25.03;10.07;;;1.80;69.50;;;0.13;60.41;99990.66;10428624;27;96623;-76
2022/03/04 01:04:47;;;;;;;24.53;9.93;;;1.90;69.10;;;0.29;61.12;99977.31;10421263;27;96582;-77
2022/03/04 01:09:50;;;;;;;25.03;12.23;;;2.00;70.20;;;0.45;61.24;99984.00;10424242;27;96588;-77
2022/03/04 01:14:55;;;;;;;27.97;12.13;;;2.20;70.40;;;0.62;61.02;99971.50;10420103;27;96508;-76
2022/03/04 01:19:58;;;;;;;30.13;12.90;;;2.40;70.90;;;0.74;61.41;99974.06;10431865;27;96533;-77
2022/03/04 01:25:01;;;;;;;26.30;11.60;;;2.50;70.50;;;0.82;60.79;99970.88;10422222;27;96625;-77
2022/03/04 01:30:08;;;;;;;21.13;10.13;;;2.60;71.00;;;0.90;61.33;99970.31;10414167;27;96675;-77
2022/03/04 01:35:11;;;;;;;22.33;10.37;;;2.60;70.50;;;0.96;61.19;99962.03;10430105;27;96976;-77
2022/03/04 01:40:15;;;;;;;21.03;9.63;;;2.70;70.60;;;1.01;61.15;99965.16;10401579;27;97473;-78
2022/03/04 01:45:18;;;;;;;27.37;12.17;;;2.80;71.10;;;1.05;61.15;99969.22;10432411;27;96576;-77
2022/03/04 01:50:23;;;;;;;20.60;10.43;;;2.90;71.60;;;1.07;61.18;99964.69;10414662;27;96571;-76
2022/03/04 01:55:26;;;;;;;21.13;9.80;;;2.90;71.40;;;1.12;60.79;99967.81;10399313;27;96436;-76
2022/03/04 02:00:29;;;;;;;25.30;10.30;;;2.90;71.20;;;1.15;61.26;99962.38;10388324;27;97248;-77
2022/03/04 02:05:32;;;;;;;20.17;9.77;;;3.00;71.80;;;1.18;61.42;99963.91;10454442;27;96801;-77
2022/03/04 02:10:35;;;;;;;21.93;8.87;;;3.00;72.50;;;1.21;61.55;99968.94;10428169;27;96628;-77
2022/03/04 02:15:38;;;;;;;21.07;9.80;;;3.10;72.70;;;1.24;61.49;99960.84;10422903;27;96670;-77
2022/03/04 02:20:49;;;;;;;21.17;10.07;;;3.00;73.40;;;1.26;61.41;99970.25;10404167;28;96381;-77
2022/03/04 02:25:52;;;;;;;20.88;9.48;;;3.10;72.60;;;1.25;61.40;99963.31;10422409;27;96850;-77
2022/03/04 02:30:55;;;;;;;22.90;10.90;;;3.10;72.90;;;1.18;61.58;99967.34;10434254;27;96539;-77
2022/03/04 02:35:58;;;;;;;21.47;10.27;;;3.10;72.70;;;1.09;61.95;99977.69;10437589;27;96536;-77
2022/03/04 02:41:01;;;;;;;23.07;9.97;;;3.00;72.50;;;0.98;62.57;99976.69;10452028;27;96578;-77
2022/03/04 02:46:05;;;;;;;24.40;10.97;;;2.90;73.10;;;0.86;61.89;99989.81;10426300;27;96414;-77
2022/03/04 02:51:08;;;;;;;25.40;11.17;;;2.80;73.30;;;0.71;62.03;100000.44;10445128;27;96478;-77
2022/03/04 02:56:11;;;;;;;24.60;10.97;;;2.70;73.10;;;0.53;62.82;99996.50;10422873;27;96563;-77
2022/03/04 03:01:14;;;;;;;27.13;13.17;;;2.60;74.70;;;0.38;63.87;100002.84;10406181;27;98469;-77
2022/03/04 03:06:18;;;;;;;31.03;13.03;;;2.40;76.50;;;0.21;64.34;100004.84;10427316;27;96478;-77
2022/03/04 03:11:21;;;;;;;36.63;16.20;;;2.30;77.30;;;0.09;65.15;100002.25;10422921;27;96601;-76
2022/03/04 03:16:24;;;;;;;42.67;17.83;;;2.10;79.70;;;-0.05;65.61;100005.81;10424980;27;97160;-76
2022/03/04 03:21:27;;;;;;;61.93;23.20;;;2.00;79.20;;;-0.16;66.48;100010.94;10403354;27;96551;-77
2022/03/04 03:26:30;;;;;;;47.70;18.50;;;1.90;81.50;;;-0.23;67.34;100004.47;10456548;27;96609;-78
2022/03/04 03:31:33;;;;;;;44.47;20.70;;;1.80;84.00;;;-0.27;67.89;100006.44;10414232;27;96538;-76
2022/03/04 03:36:36;;;;;;;42.90;19.03;;;1.70;87.90;;;-0.25;68.55;100008.94;10419052;28;96440;-77
2022/03/04 03:41:39;;;;;;;35.83;16.40;;;1.70;90.10;;;-0.25;68.94;100003.69;10438943;27;98930;-76
2022/03/04 03:46:42;;;;;;;30.97;15.03;;;1.70;90.40;;;-0.29;69.14;100000.47;10427220;27;96802;-77
2022/03/04 03:51:45;;;;;;;29.10;13.97;;;1.60;90.50;;;-0.31;69.73;100004.94;10459654;27;96384;-76
2022/03/04 03:56:48;;;;;;;30.20;13.43;;;1.60;92.60;;;-0.34;69.74;100000.78;10436641;27;96913;-77
2022/03/04 04:01:51;;;;;;;32.30;14.87;;;1.60;91.70;;;-0.34;70.29;100000.78;10430129;27;96999;-77
2022/03/04 04:06:55;;;;;;;31.20;14.70;;;1.60;93.70;;;-0.31;70.48;100011.00;10401220;27;97543;-76
2022/03/04 04:11:59;;;;;;;30.57;13.20;;;1.60;92.50;;;-0.24;70.61;100016.69;10383892;27;96599;-77
2022/03/04 04:17:03;;;;;;;36.33;14.97;;;1.60;94.20;;;-0.15;70.68;100023.88;10435897;27;96589;-77
2022/03/04 04:22:06;;;;;;;27.40;13.60;;;1.70;93.80;;;-0.06;70.46;100017.19;10420100;28;96428;-77
2022/03/04 04:27:09;;;;;;;27.70;13.80;;;1.80;93.00;;;0.05;70.42;100030.34;10411262;27;96573;-77
2022/03/04 04:32:12;;;;;;;29.33;13.10;;;1.90;93.70;;;0.18;70.71;100035.56;10419542;27;98180;-76
2022/03/04 04:37:15;;;;;;;26.57;13.57;;;2.00;94.20;;;0.31;70.63;100035.59;10426084;27;96562;-77
2022/03/04 04:42:18;;;;;;;29.90;13.57;;;2.10;93.30;;;0.42;70.02;100046.09;10410707;27;96580;-77
2022/03/04 04:47:21;;;;;;;37.40;18.10;;;2.20;93.70;;;0.49;70.69;100052.59;10431320;27;96600;-77
2022/03/04 04:52:24;;;;;;;61.73;22.47;;;2.30;95.00;;;0.54;70.90;100050.50;10447948;27;97820;-78
2022/03/04 04:57:28;;;;;;;58.90;22.17;;;2.30;95.60;;;0.59;71.07;100055.38;10444002;27;97102;-77
2022/03/04 05:02:31;;;;;;;40.63;16.23;;;2.30;97.20;;;0.65;70.41;100061.00;10441443;27;96450;-76
2022/03/04 05:07:35;;;;;;;32.63;14.70;;;2.40;95.30;;;0.69;69.85;100070.31;10401248;28;96553;-76
2022/03/04 05:12:39;;;;;;;29.07;14.30;;;2.50;94.50;;;0.72;69.44;100069.25;10400484;28;96700;-75
2022/03/04 05:17:44;;;;;;;34.73;15.57;;;2.50;94.60;;;0.74;69.47;100073.47;10429838;27;96337;-76
2022/03/04 05:22:47;;;;;;;28.47;12.43;;;2.50;94.60;;;0.74;69.39;100073.47;10446182;27;96507;-76
2022/03/04 05:27:50;;;;;;;31.57;14.20;;;2.60;94.90;;;0.77;69.44;100073.22;10417390;28;96377;-75
2022/03/04 05:32:53;;;;;;;46.43;20.67;;;2.60;94.60;;;0.85;69.21;100087.56;10420462;27;96572;-75
2022/03/04 05:37:56;;;;;;;29.50;14.50;;;2.60;93.80;;;0.89;68.57;100091.63;10418759;27;96509;-75
2022/03/04 05:42:59;;;;;;;42.23;18.43;;;2.70;93.90;;;0.92;68.48;100086.19;10421958;27;96481;-75
2022/03/04 05:48:02;;;;;;;33.97;14.73;;;2.70;93.30;;;0.96;68.23;100095.47;10433492;27;97889;-76
2022/03/04 05:53:05;;;;;;;35.90;16.43;;;2.80;93.20;;;0.99;68.04;100103.94;10414714;27;96493;-76
2022/03/04 05:58:08;;;;;;;36.67;17.47;;;2.80;93.00;;;1.07;67.71;100106.84;10420291;28;96633;-76
2022/03/04 06:03:11;;;;;;;51.27;24.27;;;2.90;92.90;;;1.15;67.98;100111.56;10419698;27;96891;-76
2022/03/04 06:08:14;;;;;;;47.57;21.17;;;3.00;92.90;;;1.24;67.95;100116.09;10443096;27;96751;-76
2022/03/04 06:13:17;;;;;;;50.33;21.87;;;3.00;92.90;;;1.34;67.73;100119.75;10430592;27;96518;-76
2022/03/04 06:18:21;;;;;;;54.77;24.87;;;3.10;92.70;;;1.46;67.86;100123.25;10426629;27;97027;-76
2022/03/04 06:23:25;;;;;;;54.77;21.20;;;3.20;92.50;;;1.60;67.80;100135.34;10451893;27;98291;-76
2022/03/04 06:28:28;;;;;;;44.47;23.07;;;3.30;92.80;;;1.71;67.57;100138.00;10431402;27;96488;-76
2022/03/04 06:33:35;;;;;;;43.67;19.67;;;3.40;93.10;;;1.77;68.10;100153.28;10429458;27;96514;-76
2022/03/04 06:38:41;;;;;;;38.50;18.20;;;3.50;93.80;;;1.81;68.69;100164.38;10438989;27;96441;-76
2022/03/04 06:43:45;;;;;;;40.50;19.27;;;3.50;94.50;;;1.74;70.41;100156.13;10404303;28;96536;-76
2022/03/04 06:48:48;;;;;;;36.00;19.40;;;3.50;95.90;;;1.68;71.94;100161.81;10404086;28;96410;-76
2022/03/04 06:53:51;;;;;;;43.83;20.70;;;3.40;97.40;;;1.66;72.47;100171.56;10404536;27;96450;-76
2022/03/04 06:58:54;;;;;;;38.93;20.83;;;3.40;97.70;;;1.63;73.57;100177.03;10420300;27;97537;-76
2022/03/04 07:03:57;;;;;;;43.20;21.03;;;3.40;99.40;;;1.68;74.72;100188.03;10423814;27;96333;-76
2022/03/04 07:09:00;;;;;;;38.87;19.43;;;3.40;98.90;;;1.78;75.03;100186.38;10435316;27;96525;-75
2022/03/04 07:14:04;;;;;;;44.23;19.27;;;3.50;99.90;;;1.97;75.15;100190.28;10400470;28;96428;-76
2022/03/04 07:19:07;;;;;;;41.40;19.73;;;3.60;99.90;;;2.17;75.23;100197.50;10405752;28;96457;-76
2022/03/04 07:24:10;;;;;;;41.00;18.40;;;3.80;99.90;;;2.35;74.90;100195.31;10417092;27;96799;-76
2022/03/04 07:29:12;;;;;;;36.00;18.17;;;3.90;99.90;;;2.44;74.43;100199.00;10403415;28;96432;-76
2022/03/04 07:34:16;;;;;;;39.53;18.20;;;4.10;99.90;;;2.49;74.19;100197.72;10435459;27;96720;-76
2022/03/04 07:39:19;;;;;;;42.50;21.20;;;4.10;99.90;;;2.45;73.71;100204.13;10410926;28;96768;-75
2022/03/04 07:44:23;;;;;;;38.70;19.87;;;4.20;99.90;;;2.48;73.52;100201.28;10385891;28;96476;-76
2022/03/04 07:49:26;;;;;;;40.30;19.73;;;4.20;99.60;;;2.58;73.88;100202.28;10401979;28;96444;-74
2022/03/04 07:54:29;;;;;;;39.87;19.27;;;4.20;99.90;;;2.72;73.50;100211.72;10429859;27;97486;-75
2022/03/04 07:59:32;;;;;;;30.97;16.30;;;4.30;99.90;;;3.00;72.85;100217.44;10442783;27;96462;-77
2022/03/04 08:04:36;;;;;;;37.27;19.57;;;4.50;99.90;;;3.25;71.79;100219.00;10416530;28;96441;-76
2022/03/04 08:09:40;;;;;;;30.93;17.80;;;4.80;99.90;;;3.69;71.13;100225.97;10467054;27;97045;-76
2022/03/04 08:14:43;;;;;;;29.17;16.43;;;5.00;99.90;;;4.02;69.04;100225.06;10420293;27;96649;-76
2022/03/04 08:19:46;;;;;;;29.67;15.37;;;5.30;99.10;;;4.17;67.45;100215.06;10384953;28;96551;-77
2022/03/04 08:24:49;;;;;;;39.57;18.17;;;5.40;97.60;;;4.11;66.37;100223.47;10419507;28;96640;-77
2022/03/04 08:29:52;;;;;;;27.30;15.37;;;5.50;96.90;;;4.18;65.38;100219.34;10418537;27;96752;-77
2022/03/04 08:34:55;;;;;;;34.80;16.93;;;5.60;95.80;;;4.33;64.97;100212.84;10418645;27;96566;-77
2022/03/04 08:39:58;;;;;;;26.57;15.10;;;5.70;95.30;;;4.44;64.16;100217.22;10412799;28;96575;-76
2022/03/04 08:45:02;;;;;;;24.20;14.57;;;5.80;94.80;;;4.62;63.44;100220.06;10418128;28;96403;-76
2022/03/04 08:50:06;;;;;;;28.53;15.47;;;6.00;93.80;;;4.75;62.65;100218.09;10382889;28;96495;-76
2022/03/04 08:55:16;;;;;;;28.50;13.43;;;6.10;93.20;;;4.83;61.28;100220.91;10424495;27;98271;-76
2022/03/04 09:00:19;;;;;;;29.20;15.70;;;6.20;91.30;;;4.94;60.87;100218.19;10412635;27;96921;-77
2022/03/04 09:05:22;;;;;;;26.60;14.27;;;6.30;91.60;;;5.09;59.27;100230.03;10442054;27;96432;-77
2022/03/04 09:10:27;;;;;;;26.97;15.57;;;6.50;90.10;;;5.20;59.21;100223.84;10402016;27;96555;-77
2022/03/04 09:15:30;;;;;;;25.97;14.00;;;6.60;89.50;;;5.44;58.22;100225.31;10395563;28;97890;-77
2022/03/04 09:20:34;;;;;;;28.20;15.00;;;6.70;88.80;;;5.66;57.04;100235.66;10416480;28;97500;-77
2022/03/04 09:25:38;;;;;;;38.23;17.43;;;6.90;86.60;;;6.12;56.02;100236.88;10374779;28;96808;-76
2022/03/04 09:30:41;;;;;;;25.57;13.97;;;7.30;84.70;;;6.71;54.25;100239.31;10375002;28;96844;-76
2022/03/04 09:35:44;;;;;;;435.50;97.80;;;7.70;82.70;;;7.05;52.92;100233.53;10358578;28;96919;-77
2022/03/04 09:40:50;;;;;;;51.13;20.50;;;8.00;82.10;;;7.76;51.28;100239.03;10398157;28;96537;-77
2022/03/04 09:45:53;;;;;;;34.77;17.57;;;8.60;80.10;;;8.26;49.44;100227.94;10396795;28;96428;-76
2022/03/04 09:50:56;;;;;;;25.97;15.23;;;9.10;78.50;;;8.64;46.77;100231.28;10371843;28;96572;-76
2022/03/04 09:55:59;;;;;;;28.07;15.53;;;9.50;71.30;;;8.66;46.06;100226.63;10361228;28;97367;-73
2022/03/04 10:01:11;;;;;;;24.53;14.73;;;9.80;70.00;;;8.78;45.37;100220.09;10393068;28;96411;-75
2022/03/04 10:06:17;;;;;;;24.73;15.63;;;9.90;66.70;;;8.98;45.67;100219.88;10377197;28;97394;-78
2022/03/04 10:11:33;;;;;;;24.37;14.27;;;10.10;65.20;;;9.07;45.05;100218.94;10373218;27;96484;-77
2022/03/04 10:16:40;;;;;;;27.30;15.13;;;10.30;64.90;;;8.92;44.12;100216.03;10431666;27;96556;-77
2022/03/04 10:22:01;;;;;;;28.87;15.07;;;10.30;63.60;;;8.49;45.09;100219.56;10412286;27;96750;-77
2022/03/04 10:27:09;;;;;;;28.55;17.98;;;10.00;62.50;;;8.00;46.33;100214.63;10441542;27;96539;-77
2022/03/04 10:32:13;;;;;;;33.57;18.20;;;9.60;62.70;;;7.49;48.13;100218.72;10415920;27;96537;-77
2022/03/04 10:37:48;;;;;;;34.07;18.57;;;9.10;63.60;;;7.00;48.61;100225.19;10442847;27;97053;-76
2022/03/04 10:43:05;;;;;;;32.83;16.53;;;8.70;64.30;;;6.77;50.66;100227.34;10460436;27;96390;-76
2022/03/04 10:48:17;;;;;;;31.63;16.70;;;8.40;66.10;;;6.37;54.07;100230.19;10409967;28;96478;-75
2022/03/04 10:53:27;;;;;;;32.63;18.50;;;8.00;70.90;;;6.06;55.16;100234.78;10397898;28;96556;-75
2022/03/04 10:58:39;;;;;;;35.87;16.80;;;7.60;71.70;;;5.83;56.65;100231.53;10405621;27;96593;-76
2022/03/04 11:03:42;;;;;;;32.93;19.07;;;7.30;74.80;;;5.72;57.13;100226.38;10443001;27;96498;-76
2022/03/04 11:08:46;;;;;;;30.63;16.37;;;7.20;75.80;;;5.60;56.91;100228.28;10434080;27;96588;-76
2022/03/04 11:13:50;;;;;;;33.17;18.87;;;7.00;75.70;;;5.58;56.62;100238.97;10403558;28;97417;-76
2022/03/04 11:18:54;;;;;;;36.07;18.50;;;7.00;75.40;;;5.46;56.93;100229.50;10407950;27;96589;-76
2022/03/04 11:23:58;;;;;;;32.30;17.87;;;6.90;76.60;;;5.36;57.91;100239.19;10419626;28;96423;-76
2022/03/04 11:29:03;;;;;;;32.23;17.17;;;6.70;78.00;;;5.32;58.03;100241.22;10400683;28;96538;-76
2022/03/04 11:34:06;;;;;;;28.27;17.30;;;6.70;79.40;;;5.30;58.17;100237.91;10404023;27;96419;-76
2022/03/04 11:39:12;;;;;;;31.17;15.63;;;6.70;78.70;;;5.37;58.10;100239.03;10438207;27;98228;-76
2022/03/04 11:44:21;;;;;;;32.30;18.00;;;6.70;78.90;;;5.64;58.21;100232.31;10460781;27;96468;-77
2022/03/04 11:49:43;;;;;;;29.83;16.60;;;6.90;79.10;;;5.92;56.81;100227.25;10442848;27;96536;-77
2022/03/04 11:54:51;;;;;;;28.17;16.43;;;7.20;77.50;;;6.04;54.89;100234.91;10411322;28;96678;-78
2022/03/04 12:00:21;;;;;;;28.07;15.27;;;7.30;75.00;;;6.15;54.41;100245.31;10400532;28;96605;-78
2022/03/04 12:05:30;;;;;;;34.80;17.93;;;7.40;74.50;;;6.16;54.77;100241.72;10401201;28;96640;-77
2022/03/04 12:10:47;;;;;;;24.93;15.17;;;7.40;75.00;;;6.22;54.02;100239.50;10400477;28;96858;-77
2022/03/04 12:16:11;;;;;;;44.73;24.23;;;7.50;73.70;;;6.34;53.56;100233.09;10383427;28;96598;-77
2022/03/04 12:21:26;;;;;;;31.27;17.67;;;7.60;73.20;;;6.38;52.61;100231.84;10409342;27;96534;-77
2022/03/04 12:26:39;;;;;;;32.00;17.53;;;7.80;72.20;;;6.20;51.21;100230.91;10437878;27;96683;-77
2022/03/04 12:31:44;;;;;;;27.27;14.93;;;7.80;71.00;;;6.22;51.67;100231.56;10443407;27;96530;-76
2022/03/04 12:36:52;;;;;;;26.50;13.70;;;7.70;70.60;;;6.47;51.83;100222.25;10416670;27;96574;-77
2022/03/04 12:41:57;;;;;;;26.90;15.60;;;7.80;70.10;;;6.55;50.30;100231.16;10424388;27;96606;-76
2022/03/04 12:47:00;;;;;;;29.47;15.53;;;8.00;68.70;;;6.74;50.24;100219.72;10425291;27;97870;-77
2022/03/04 12:52:03;;;;;;;30.10;17.23;;;8.10;68.10;;;6.73;49.50;100211.94;10421974;27;96687;-77
2022/03/04 12:57:07;;;;;;;30.13;16.13;;;8.20;67.60;;;6.73;49.54;100211.94;10432945;27;96591;-77
2022/03/04 13:02:10;;;;;;;28.30;14.73;;;8.20;66.30;;;6.54;50.04;100208.38;10445806;27;97374;-76
2022/03/04 13:07:13;;;;;;;24.17;14.43;;;8.10;66.80;;;6.43;50.77;100209.34;10429544;27;96621;-75
2022/03/04 13:12:21;;;;;;;37.30;18.63;;;8.00;67.20;;;6.34;52.41;100196.97;10410335;27;96604;-76
2022/03/04 13:17:25;;;;;;;37.93;20.20;;;7.90;68.10;;;6.17;52.95;100206.44;10379753;28;96765;-76
2022/03/04 13:22:28;;;;;;;35.53;18.73;;;7.80;68.80;;;5.96;52.70;100208.38;10398434;28;96549;-76
2022/03/04 13:27:43;;;;;;;37.10;19.63;;;7.60;68.50;;;5.74;52.99;100211.25;10416033;28;96469;-76
2022/03/04 13:32:54;;;;;;;33.13;17.27;;;7.50;68.50;;;5.70;53.37;100202.78;10383281;28;96476;-76
2022/03/04 13:37:57;;;;;;;33.10;18.10;;;7.40;69.20;;;5.60;53.49;100207.19;10387916;28;96531;-76
2022/03/04 13:43:03;;;;;;;35.63;18.63;;;7.30;69.00;;;5.53;55.51;100212.19;10371917;28;96690;-76
2022/03/04 13:48:07;;;;;;;37.23;20.20;;;7.20;70.00;;;5.35;57.56;100211.16;10364876;28;96477;-76
2022/03/04 13:53:13;;;;;;;35.30;18.57;;;7.00;71.90;;;5.20;58.11;100205.41;10371234;28;97365;-76
2022/03/04 13:58:22;;;;;;;40.20;20.83;;;6.80;73.20;;;5.13;58.59;100206.09;10397491;28;96457;-76
2022/03/04 14:03:43;;;;;;;34.83;18.97;;;6.80;73.90;;;5.37;58.64;100199.50;10394967;28;97474;-75
2022/03/04 14:08:46;;;;;;;37.78;19.27;;;6.90;75.50;;;5.72;57.62;100200.84;10374155;28;96591;-76
2022/03/04 14:13:49;;;;;;;35.63;22.00;;;7.20;74.60;;;5.93;54.85;100194.63;10388921;27;98261;-77
2022/03/04 14:18:52;;;;;;;35.07;19.03;;;7.40;73.10;;;6.13;54.09;100191.88;10440547;27;96697;-77
2022/03/04 14:23:55;;;;;;;34.30;19.60;;;7.60;72.40;;;6.26;54.39;100201.31;10418623;28;96613;-77
2022/03/04 14:29:13;;;;;;;34.33;18.07;;;7.70;71.90;;;6.35;54.43;100205.72;10430426;27;96584;-76
2022/03/04 14:34:16;;;;;;;34.00;18.73;;;7.80;72.10;;;6.17;56.44;100201.16;10436159;27;96577;-76
2022/03/04 14:39:19;;;;;;;32.17;18.93;;;7.70;74.20;;;5.87;58.42;100214.44;10421525;27;96517;-76
2022/03/04 14:44:22;;;;;;;36.33;20.10;;;7.50;76.20;;;5.50;60.09;100212.44;10419891;27;96642;-76
2022/03/04 14:49:25;;;;;;;38.17;20.73;;;7.20;76.50;;;5.14;61.11;100215.66;10440281;27;97258;-76
2022/03/04 14:54:28;;;;;;;35.83;20.20;;;6.90;77.60;;;4.92;61.08;100206.97;10427499;27;98457;-75
2022/03/04 14:59:51;;;;;;;33.83;18.30;;;6.60;78.50;;;4.76;60.07;100209.25;10423707;27;96604;-75
2022/03/04 15:04:54;;;;;;;43.27;21.77;;;6.50;77.90;;;4.65;58.80;100204.88;10418994;27;96556;-76
2022/03/04 15:09:57;;;;;;;36.07;19.80;;;6.40;76.70;;;4.53;59.04;100206.75;10414451;27;96466;-76
2022/03/04 15:15:17;;;;;;;62.67;26.93;;;6.20;76.60;;;4.45;58.74;100206.56;10427857;27;96510;-76
2022/03/04 15:20:22;;;;;;;128.40;50.77;;;6.10;76.40;;;4.34;57.76;100205.78;10460272;27;96657;-77
2022/03/04 15:25:25;;;;;;;329.90;120.17;;;6.00;75.80;;;4.28;57.92;100201.88;10430033;27;96842;-75
2022/03/04 15:30:28;;;;;;;151.97;72.80;;;5.90;75.60;;;4.23;58.73;100215.41;10438651;27;96642;-76
2022/03/04 15:35:31;;;;;;;54.17;27.57;;;5.90;76.00;;;4.09;59.41;100220.97;10442672;27;96588;-76
2022/03/04 15:40:34;;;;;;;61.23;32.97;;;5.80;76.50;;;4.05;59.54;100226.59;10444288;27;97245;-76
2022/03/04 15:45:37;;;;;;;51.67;25.40;;;5.70;76.30;;;4.00;59.55;100227.78;10418130;27;96651;-76
2022/03/04 15:50:40;;;;;;;48.33;24.90;;;5.70;76.40;;;3.96;59.93;100222.94;10409639;27;96546;-78
2022/03/04 15:55:44;;;;;;;47.10;24.70;;;5.70;76.60;;;3.94;60.14;100230.09;10403672;27;96566;-76
2022/03/04 16:00:48;;;;;;;33.10;18.50;;;5.60;76.80;;;3.84;60.09;100230.03;10398668;27;98624;-76
2022/03/04 16:05:51;;;;;;;37.50;19.83;;;5.60;76.60;;;3.71;60.49;100234.56;10453533;27;96582;-76
2022/03/04 16:10:54;;;;;;;34.87;19.63;;;5.50;76.80;;;3.58;61.03;100234.72;10435000;27;98420;-75
2022/03/04 16:15:57;;;;;;;33.57;19.77;;;5.40;77.20;;;3.43;61.48;100239.41;10424947;27;96608;-75
2022/03/04 16:21:02;;;;;;;41.10;23.67;;;5.30;78.00;;;3.27;61.52;100231.06;10407982;27;97416;-75
2022/03/04 16:26:09;;;;;;;118.33;55.27;;;5.20;77.60;;;3.07;62.13;100234.41;10384258;28;96520;-75
2022/03/04 16:31:13;;;;;;;135.13;53.60;;;5.00;77.80;;;2.83;62.84;100251.09;10419774;27;96666;-75
2022/03/04 16:36:22;;;;;;;77.67;33.53;;;4.80;78.20;;;2.60;63.62;100250.22;10408622;27;96613;-77
2022/03/04 16:41:25;;;;;;;54.00;24.57;;;4.70;78.70;;;2.41;64.14;100255.16;10434991;27;98170;-75
2022/03/04 16:46:31;;;;;;;78.27;31.73;;;4.50;80.10;;;2.14;65.10;100264.09;10400550;27;96930;-76
2022/03/04 16:51:54;;;;;;;60.67;26.37;;;4.20;80.00;;;1.88;65.56;100266.00;10436588;27;96987;-76
2022/03/04 16:56:58;;;;;;;97.80;39.73;;;4.00;81.60;;;1.60;66.10;100268.91;10403627;27;96599;-77
2022/03/04 17:02:02;;;;;;;69.47;29.30;;;3.70;82.10;;;1.34;66.42;100268.16;10413178;27;98451;-76
2022/03/04 17:07:12;;;;;;;75.47;33.33;;;3.50;83.00;;;1.11;67.41;100285.44;10407076;27;96541;-76
2022/03/04 17:12:15;;;;;;;79.90;36.87;;;3.30;86.10;;;0.94;67.86;100289.19;10412644;27;96597;-76
2022/03/04 17:17:18;;;;;;;69.67;29.10;;;3.10;85.30;;;0.80;68.48;100292.75;10403480;27;96574;-76
2022/03/04 17:22:22;;;;;;;54.30;24.37;;;2.90;85.20;;;0.68;68.80;100292.75;10421189;27;96873;-76
2022/03/04 17:27:25;;;;;;;53.20;26.40;;;2.70;89.50;;;0.58;68.87;100292.50;10399640;27;97367;-75
2022/03/04 17:32:27;;;;;;;59.63;26.57;;;2.60;89.70;;;0.44;68.59;100301.28;10433608;27;96512;-76
2022/03/04 17:37:31;;;;;;;46.10;23.53;;;2.50;88.90;;;0.29;68.77;100306.66;10447350;27;96895;-77
2022/03/04 17:42:35;;;;;;;47.13;22.33;;;2.40;89.50;;;0.14;69.05;100306.72;10446058;27;96465;-76
2022/03/04 17:47:39;;;;;;;44.07;21.80;;;2.30;88.90;;;0.03;69.67;100311.78;10420473;27;98275;-77
2022/03/04 17:52:42;;;;;;;44.90;21.63;;;2.20;91.00;;;-0.06;69.77;100307.16;10422519;27;96502;-76
2022/03/04 17:57:47;;;;;;;50.67;23.23;;;2.10;90.90;;;-0.15;70.16;100307.75;10413924;27;96876;-76
2022/03/04 18:02:50;;;;;;;47.03;22.10;;;2.00;91.80;;;-0.23;70.73;100313.47;10393233;27;96697;-75
2022/03/04 18:07:53;;;;;;;62.30;26.20;;;1.90;94.30;;;-0.27;71.45;100320.63;10395690;27;96718;-76
2022/03/04 18:12:57;;;;;;;80.67;31.10;;;1.80;94.60;;;-0.22;71.88;100328.19;10397028;28;96508;-75
2022/03/04 18:18:00;;;;;;;134.50;47.23;;;1.80;95.50;;;-0.18;72.04;100337.50;10396038;28;96398;-76
2022/03/04 18:23:08;;;;;;;97.90;38.83;;;1.80;95.50;;;-0.14;71.84;100338.16;10432124;27;96542;-75
2022/03/04 18:28:13;;;;;;;87.90;35.50;;;1.80;95.10;;;-0.08;72.33;100340.38;10422121;27;96402;-76
2022/03/04 18:33:16;;;;;;;64.13;27.93;;;1.80;96.20;;;-0.02;72.35;100340.81;10438471;27;96548;-77
2022/03/04 18:43:42;;;;;;;58.43;26.47;;;1.90;95.60;;;0.10;71.56;100349.66;10374424;28;96707;-76
2022/03/04 18:48:48;;;;;;;56.27;23.97;;;2.00;95.10;;;0.17;71.80;100343.09;10397389;28;96527;-76
2022/03/04 18:53:52;;;;;;;48.27;25.70;;;2.00;94.90;;;0.23;71.29;100352.31;10427948;27;96856;-76
2022/03/04 18:58:55;;;;;;;54.53;26.40;;;2.10;95.10;;;0.25;71.16;100353.91;10461682;27;96482;-76
2022/03/04 19:03:58;;;;;;;53.70;24.27;;;2.20;95.10;;;0.29;71.40;100357.16;10436118;27;96412;-78
2022/03/04 19:09:02;;;;;;;62.53;24.77;;;2.20;94.90;;;0.32;71.35;100356.13;10422407;27;96493;-77
2022/03/04 19:14:09;;;;;;;56.77;25.47;;;2.20;95.20;;;0.35;71.45;100366.38;10443934;27;97808;-75
2022/03/04 19:19:13;;;;;;;64.33;31.13;;;2.30;95.30;;;0.41;71.79;100366.81;10410816;27;96385;-76
2022/03/04 19:24:17;;;;;;;56.80;28.40;;;2.30;95.40;;;0.43;71.42;100366.75;10443322;27;96601;-77
2022/03/04 19:29:21;;;;;;;71.47;31.23;;;2.30;95.80;;;0.45;71.52;100370.09;10453203;27;97841;-77
2022/03/04 19:34:24;;;;;;;78.13;34.80;;;2.30;95.80;;;0.48;71.62;100385.56;10419205;27;98262;-76
2022/03/04 19:39:28;;;;;;;72.27;34.67;;;2.30;96.90;;;0.51;71.45;100403.69;10409905;27;98780;-76
2022/03/04 19:44:31;;;;;;;66.07;30.70;;;2.40;97.30;;;0.53;71.44;100402.63;10422000;27;98327;-76
2022/03/04 19:49:34;;;;;;;74.40;34.23;;;2.40;97.80;;;0.54;71.35;100406.13;10436225;27;96974;-76
2022/03/04 19:54:39;;;;;;;67.00;31.90;;;2.30;97.50;;;0.55;71.55;100410.41;10412049;27;98234;-76
2022/03/04 19:59:42;;;;;;;69.10;30.93;;;2.40;97.10;;;0.59;71.32;100417.09;10422273;27;96812;-76
2022/03/04 20:04:45;;;;;;;62.43;28.87;;;2.40;97.10;;;0.64;71.50;100425.50;10439166;27;96646;-76
2022/03/04 20:09:49;;;;;;;44.97;22.30;;;2.40;97.40;;;0.70;71.94;100424.25;10453300;27;96680;-76
2022/03/04 20:14:52;;;;;;;51.77;25.23;;;2.50;98.20;;;0.78;72.84;100430.69;10438954;27;96638;-76
2022/03/04 20:19:55;;;;;;;46.97;22.80;;;2.60;98.70;;;0.90;72.56;100436.03;10419859;27;96585;-76
2022/03/04 20:24:58;;;;;;;61.87;26.53;;;2.60;98.30;;;0.98;72.48;100446.84;10416851;27;98243;-76
2022/03/04 20:30:01;;;;;;;53.20;24.30;;;2.70;97.70;;;1.04;71.98;100446.44;10403430;27;97584;-76
2022/03/04 20:35:06;;;;;;;51.23;24.33;;;2.80;97.50;;;1.12;71.29;100448.56;10409131;27;97000;-75
2022/03/04 20:40:10;;;;;;;49.60;24.07;;;2.90;96.70;;;1.19;70.56;100455.88;10388954;27;96481;-76
2022/03/04 20:45:13;;;;;;;54.60;22.70;;;3.00;96.30;;;1.24;70.73;100463.44;10415932;27;97189;-76
2022/03/04 20:50:16;;;;;;;49.40;24.13;;;3.00;96.70;;;1.26;70.80;100453.69;10434047;27;96774;-76
2022/03/04 20:55:19;;;;;;;55.57;26.07;;;3.00;96.80;;;1.26;70.16;100462.41;10400707;27;96633;-76
2022/03/04 21:00:39;;;;;;;58.93;28.27;;;3.10;96.20;;;1.28;70.27;100471.00;10428984;27;97461;-75